sensor_id;sensor_type;location;lat;lon;timestamp;P1;durP1;ratioP1;P2;durP2;ratioP2
25917;SDS011;13899;51.174;4.456;2023-05-09T00:01:04;20.10;;;13.97;;
25917;SDS011;13899;51.174;4.456;2023-05-09T00:03:31;21.63;;;13.20;;
25917;SDS011;13899;51.174;4.456;2023-05-09T00:05:57;14.97;;;12.30;;
25917;SDS011;13899;51.174;4.456;2023-05-09T00:08:22;15.52;;;12.10;;
25917;SDS011;13899;51.174;4.456;2023-05-09T00:10:48;15.82;;;13.18;;
25917;SDS011;13899;51.174;4.456;2023-05-09T00:13:14;15.10;;;11.70;;
25917;SDS011;13899;51.174;4.456;2023-05-09T00:15:39;14.88;;;11.35;;
25917;SDS011;13899;51.174;4.456;2023-05-09T00:18:05;14.90;;;11.77;;
25917;SDS011;13899;51.174;4.456;2023-05-09T00:20:31;13.40;;;11.05;;
25917;SDS011;13899;51.174;4.456;2023-05-09T00:22:58;13.63;;;11.35;;
25917;SDS011;13899;51.174;4.456;2023-05-09T00:25:23;15.00;;;11.20;;
25917;SDS011;13899;51.174;4.456;2023-05-09T00:27:49;18.95;;;11.88;;
25917;SDS011;13899;51.174;4.456;2023-05-09T00:30:15;12.48;;;10.10;;
25917;SDS011;13899;51.174;4.456;2023-05-09T00:32:40;13.68;;;10.73;;
25917;SDS011;13899;51.174;4.456;2023-05-09T00:35:06;16.02;;;10.25;;
25917;SDS011;13899;51.174;4.456;2023-05-09T00:37:33;12.60;;;10.73;;
25917;SDS011;13899;51.174;4.456;2023-05-09T00:39:59;11.17;;;10.07;;
25917;SDS011;13899;51.174;4.456;2023-05-09T00:42:25;12.67;;;11.23;;
25917;SDS011;13899;51.174;4.456;2023-05-09T00:44:50;11.80;;;10.60;;
25917;SDS011;13899;51.174;4.456;2023-05-09T00:47:16;11.40;;;10.23;;
25917;SDS011;13899;51.174;4.456;2023-05-09T00:49:42;11.70;;;10.55;;
25917;SDS011;13899;51.174;4.456;2023-05-09T00:52:07;10.37;;;9.37;;
25917;SDS011;13899;51.174;4.456;2023-05-09T00:54:33;12.10;;;10.67;;
25917;SDS011;13899;51.174;4.456;2023-05-09T00:56:59;11.00;;;9.87;;
25917;SDS011;13899;51.174;4.456;2023-05-09T00:59:26;12.07;;;10.70;;
25917;SDS011;13899;51.174;4.456;2023-05-09T01:01:52;11.60;;;10.32;;
25917;SDS011;13899;51.174;4.456;2023-05-09T01:04:18;11.60;;;10.35;;
25917;SDS011;13899;51.174;4.456;2023-05-09T01:09:44;11.35;;;10.05;;
25917;SDS011;13899;51.174;4.456;2023-05-09T01:15:53;12.63;;;11.43;;
25917;SDS011;13899;51.174;4.456;2023-05-09T01:17:54;11.35;;;9.82;;
25917;SDS011;13899;51.174;4.456;2023-05-09T01:23:02;10.20;;;9.20;;
25917;SDS011;13899;51.174;4.456;2023-05-09T01:25:48;10.30;;;9.30;;
25917;SDS011;13899;51.174;4.456;2023-05-09T01:31:22;9.60;;;8.68;;
25917;SDS011;13899;51.174;4.456;2023-05-09T01:33:58;10.30;;;9.25;;
25917;SDS011;13899;51.174;4.456;2023-05-09T01:36:26;11.13;;;9.15;;
25917;SDS011;13899;51.174;4.456;2023-05-09T01:38:56;9.85;;;8.80;;
25917;SDS011;13899;51.174;4.456;2023-05-09T01:41:23;9.43;;;8.45;;
25917;SDS011;13899;51.174;4.456;2023-05-09T01:43:54;9.40;;;8.50;;
25917;SDS011;13899;51.174;4.456;2023-05-09T01:48:48;11.20;;;8.40;;
25917;SDS011;13899;51.174;4.456;2023-05-09T01:53:40;11.05;;;8.40;;
25917;SDS011;13899;51.174;4.456;2023-05-09T01:56:08;9.73;;;8.82;;
25917;SDS011;13899;51.174;4.456;2023-05-09T01:58:35;9.35;;;8.02;;
25917;SDS011;13899;51.174;4.456;2023-05-09T02:01:03;9.80;;;8.80;;
25917;SDS011;13899;51.174;4.456;2023-05-09T02:03:30;9.23;;;8.38;;
25917;SDS011;13899;51.174;4.456;2023-05-09T02:05:58;8.63;;;7.75;;
25917;SDS011;13899;51.174;4.456;2023-05-09T02:08:25;9.05;;;8.23;;
25917;SDS011;13899;51.174;4.456;2023-05-09T02:10:51;9.07;;;8.20;;
25917;SDS011;13899;51.174;4.456;2023-05-09T02:13:17;10.25;;;8.25;;
25917;SDS011;13899;51.174;4.456;2023-05-09T02:15:43;9.63;;;8.73;;
25917;SDS011;13899;51.174;4.456;2023-05-09T02:18:09;9.18;;;7.85;;
25917;SDS011;13899;51.174;4.456;2023-05-09T02:20:35;9.07;;;7.65;;
25917;SDS011;13899;51.174;4.456;2023-05-09T02:23:01;11.67;;;7.70;;
25917;SDS011;13899;51.174;4.456;2023-05-09T02:25:27;8.85;;;8.10;;
25917;SDS011;13899;51.174;4.456;2023-05-09T02:27:54;8.67;;;7.77;;
25917;SDS011;13899;51.174;4.456;2023-05-09T02:30:23;10.50;;;9.30;;
25917;SDS011;13899;51.174;4.456;2023-05-09T02:32:52;10.05;;;8.57;;
25917;SDS011;13899;51.174;4.456;2023-05-09T02:35:21;10.13;;;8.55;;
25917;SDS011;13899;51.174;4.456;2023-05-09T02:37:50;9.40;;;8.50;;
25917;SDS011;13899;51.174;4.456;2023-05-09T02:40:17;10.27;;;9.23;;
25917;SDS011;13899;51.174;4.456;2023-05-09T02:42:44;9.18;;;8.27;;
25917;SDS011;13899;51.174;4.456;2023-05-09T02:45:10;9.87;;;8.87;;
25917;SDS011;13899;51.174;4.456;2023-05-09T02:47:36;9.35;;;7.75;;
25917;SDS011;13899;51.174;4.456;2023-05-09T02:50:02;9.82;;;8.13;;
25917;SDS011;13899;51.174;4.456;2023-05-09T02:52:29;13.57;;;10.68;;
25917;SDS011;13899;51.174;4.456;2023-05-09T02:54:55;11.30;;;9.50;;
25917;SDS011;13899;51.174;4.456;2023-05-09T02:57:21;13.23;;;9.98;;
25917;SDS011;13899;51.174;4.456;2023-05-09T02:59:46;11.97;;;8.67;;
25917;SDS011;13899;51.174;4.456;2023-05-09T03:02:12;10.07;;;9.13;;
25917;SDS011;13899;51.174;4.456;2023-05-09T03:04:37;9.55;;;8.65;;
25917;SDS011;13899;51.174;4.456;2023-05-09T03:07:03;8.97;;;8.10;;
25917;SDS011;13899;51.174;4.456;2023-05-09T03:09:29;11.27;;;8.17;;
25917;SDS011;13899;51.174;4.456;2023-05-09T03:11:55;9.93;;;8.45;;
25917;SDS011;13899;51.174;4.456;2023-05-09T03:14:21;9.30;;;8.50;;
25917;SDS011;13899;51.174;4.456;2023-05-09T03:16:46;9.20;;;8.20;;
25917;SDS011;13899;51.174;4.456;2023-05-09T03:19:12;8.13;;;7.43;;
25917;SDS011;13899;51.174;4.456;2023-05-09T03:21:38;10.70;;;7.80;;
25917;SDS011;13899;51.174;4.456;2023-05-09T03:24:03;8.43;;;7.50;;
25917;SDS011;13899;51.174;4.456;2023-05-09T03:28:56;9.13;;;8.33;;
25917;SDS011;13899;51.174;4.456;2023-05-09T03:31:22;8.77;;;8.07;;
25917;SDS011;13899;51.174;4.456;2023-05-09T03:33:48;10.15;;;7.93;;
25917;SDS011;13899;51.174;4.456;2023-05-09T03:36:13;8.77;;;7.87;;
25917;SDS011;13899;51.174;4.456;2023-05-09T03:38:39;9.10;;;7.53;;
25917;SDS011;13899;51.174;4.456;2023-05-09T03:41:05;8.73;;;7.88;;
25917;SDS011;13899;51.174;4.456;2023-05-09T03:43:30;7.70;;;6.90;;
25917;SDS011;13899;51.174;4.456;2023-05-09T03:45:56;8.07;;;7.27;;
25917;SDS011;13899;51.174;4.456;2023-05-09T03:48:22;8.73;;;7.93;;
25917;SDS011;13899;51.174;4.456;2023-05-09T03:50:47;8.73;;;7.70;;
25917;SDS011;13899;51.174;4.456;2023-05-09T03:53:13;9.68;;;8.25;;
25917;SDS011;13899;51.174;4.456;2023-05-09T03:55:38;8.95;;;7.57;;
25917;SDS011;13899;51.174;4.456;2023-05-09T03:58:05;8.37;;;7.33;;
25917;SDS011;13899;51.174;4.456;2023-05-09T04:00:31;7.95;;;7.10;;
25917;SDS011;13899;51.174;4.456;2023-05-09T04:02:56;8.93;;;7.72;;
25917;SDS011;13899;51.174;4.456;2023-05-09T04:05:22;8.40;;;7.50;;
25917;SDS011;13899;51.174;4.456;2023-05-09T04:07:48;11.38;;;7.88;;
25917;SDS011;13899;51.174;4.456;2023-05-09T04:10:13;9.27;;;8.38;;
25917;SDS011;13899;51.174;4.456;2023-05-09T04:12:39;9.93;;;8.88;;
25917;SDS011;13899;51.174;4.456;2023-05-09T04:15:05;12.30;;;8.50;;
25917;SDS011;13899;51.174;4.456;2023-05-09T04:17:31;9.05;;;8.20;;
25917;SDS011;13899;51.174;4.456;2023-05-09T04:19:57;9.07;;;8.18;;
25917;SDS011;13899;51.174;4.456;2023-05-09T04:22:22;9.03;;;8.13;;
25917;SDS011;13899;51.174;4.456;2023-05-09T04:24:48;9.33;;;8.27;;
25917;SDS011;13899;51.174;4.456;2023-05-09T04:27:14;9.20;;;8.20;;
25917;SDS011;13899;51.174;4.456;2023-05-09T04:29:39;9.03;;;8.13;;
25917;SDS011;13899;51.174;4.456;2023-05-09T04:32:05;10.35;;;9.38;;
25917;SDS011;13899;51.174;4.456;2023-05-09T04:34:31;9.82;;;8.88;;
25917;SDS011;13899;51.174;4.456;2023-05-09T04:36:57;9.65;;;8.65;;
25917;SDS011;13899;51.174;4.456;2023-05-09T04:39:22;10.53;;;9.50;;
25917;SDS011;13899;51.174;4.456;2023-05-09T04:41:48;10.88;;;9.38;;
25917;SDS011;13899;51.174;4.456;2023-05-09T04:44:14;10.77;;;9.10;;
25917;SDS011;13899;51.174;4.456;2023-05-09T04:46:41;10.40;;;8.55;;
25917;SDS011;13899;51.174;4.456;2023-05-09T04:49:06;10.43;;;9.20;;
25917;SDS011;13899;51.174;4.456;2023-05-09T04:51:32;10.27;;;8.97;;
25917;SDS011;13899;51.174;4.456;2023-05-09T04:53:58;9.98;;;9.07;;
25917;SDS011;13899;51.174;4.456;2023-05-09T04:56:24;10.80;;;9.70;;
25917;SDS011;13899;51.174;4.456;2023-05-09T04:58:50;14.10;;;9.60;;
25917;SDS011;13899;51.174;4.456;2023-05-09T05:01:16;10.93;;;9.82;;
25917;SDS011;13899;51.174;4.456;2023-05-09T05:03:42;10.77;;;9.60;;
25917;SDS011;13899;51.174;4.456;2023-05-09T05:06:08;9.67;;;8.67;;
25917;SDS011;13899;51.174;4.456;2023-05-09T05:08:34;10.07;;;9.07;;
25917;SDS011;13899;51.174;4.456;2023-05-09T05:10:59;10.93;;;9.90;;
25917;SDS011;13899;51.174;4.456;2023-05-09T05:13:25;18.55;;;11.57;;
25917;SDS011;13899;51.174;4.456;2023-05-09T05:15:51;11.33;;;10.23;;
25917;SDS011;13899;51.174;4.456;2023-05-09T05:18:16;10.80;;;9.82;;
25917;SDS011;13899;51.174;4.456;2023-05-09T05:20:43;12.48;;;9.80;;
25917;SDS011;13899;51.174;4.456;2023-05-09T05:23:09;12.63;;;10.10;;
25917;SDS011;13899;51.174;4.456;2023-05-09T05:25:35;10.55;;;9.65;;
25917;SDS011;13899;51.174;4.456;2023-05-09T05:28:01;10.73;;;9.70;;
25917;SDS011;13899;51.174;4.456;2023-05-09T05:30:26;11.80;;;10.60;;
25917;SDS011;13899;51.174;4.456;2023-05-09T05:32:52;11.23;;;10.23;;
25917;SDS011;13899;51.174;4.456;2023-05-09T05:35:18;15.17;;;11.70;;
25917;SDS011;13899;51.174;4.456;2023-05-09T05:37:47;12.57;;;11.30;;
25917;SDS011;13899;51.174;4.456;2023-05-09T05:40:12;13.03;;;10.63;;
25917;SDS011;13899;51.174;4.456;2023-05-09T05:42:38;12.25;;;10.70;;
25917;SDS011;13899;51.174;4.456;2023-05-09T05:45:04;11.75;;;10.45;;
25917;SDS011;13899;51.174;4.456;2023-05-09T05:47:31;13.20;;;10.83;;
25917;SDS011;13899;51.174;4.456;2023-05-09T05:49:58;11.65;;;10.30;;
25917;SDS011;13899;51.174;4.456;2023-05-09T05:52:24;13.05;;;11.75;;
25917;SDS011;13899;51.174;4.456;2023-05-09T05:54:53;13.75;;;11.48;;
25917;SDS011;13899;51.174;4.456;2023-05-09T05:57:18;11.83;;;10.73;;
25917;SDS011;13899;51.174;4.456;2023-05-09T05:59:48;11.80;;;9.57;;
25917;SDS011;13899;51.174;4.456;2023-05-09T06:02:15;11.30;;;10.20;;
25917;SDS011;13899;51.174;4.456;2023-05-09T06:07:08;11.57;;;9.07;;
25917;SDS011;13899;51.174;4.456;2023-05-09T06:09:34;16.60;;;8.98;;
25917;SDS011;13899;51.174;4.456;2023-05-09T06:12:00;13.67;;;9.50;;
25917;SDS011;13899;51.174;4.456;2023-05-09T06:14:26;9.68;;;8.77;;
25917;SDS011;13899;51.174;4.456;2023-05-09T06:16:52;13.87;;;10.57;;
25917;SDS011;13899;51.174;4.456;2023-05-09T06:19:18;10.82;;;9.70;;
25917;SDS011;13899;51.174;4.456;2023-05-09T06:21:43;10.30;;;9.40;;
25917;SDS011;13899;51.174;4.456;2023-05-09T06:24:09;10.88;;;9.88;;
25917;SDS011;13899;51.174;4.456;2023-05-09T06:26:35;10.57;;;9.57;;
25917;SDS011;13899;51.174;4.456;2023-05-09T06:29:01;12.70;;;10.43;;
25917;SDS011;13899;51.174;4.456;2023-05-09T06:31:27;12.02;;;10.25;;
25917;SDS011;13899;51.174;4.456;2023-05-09T06:33:54;10.82;;;9.80;;
25917;SDS011;13899;51.174;4.456;2023-05-09T06:36:20;11.02;;;9.95;;
25917;SDS011;13899;51.174;4.456;2023-05-09T06:38:46;12.18;;;9.50;;
25917;SDS011;13899;51.174;4.456;2023-05-09T06:41:11;10.27;;;9.37;;
25917;SDS011;13899;51.174;4.456;2023-05-09T06:43:37;11.55;;;9.43;;
25917;SDS011;13899;51.174;4.456;2023-05-09T06:46:03;9.67;;;8.77;;
25917;SDS011;13899;51.174;4.456;2023-05-09T06:48:28;10.70;;;9.73;;
25917;SDS011;13899;51.174;4.456;2023-05-09T06:50:54;10.73;;;9.73;;
25917;SDS011;13899;51.174;4.456;2023-05-09T06:53:19;10.50;;;9.43;;
25917;SDS011;13899;51.174;4.456;2023-05-09T06:55:45;9.82;;;8.93;;
25917;SDS011;13899;51.174;4.456;2023-05-09T06:58:11;10.48;;;9.50;;
25917;SDS011;13899;51.174;4.456;2023-05-09T07:00:37;10.80;;;9.87;;
25917;SDS011;13899;51.174;4.456;2023-05-09T07:03:02;10.90;;;9.80;;
25917;SDS011;13899;51.174;4.456;2023-05-09T07:05:28;10.48;;;9.57;;
25917;SDS011;13899;51.174;4.456;2023-05-09T07:07:54;11.38;;;10.18;;
25917;SDS011;13899;51.174;4.456;2023-05-09T07:10:20;12.25;;;11.05;;
25917;SDS011;13899;51.174;4.456;2023-05-09T07:12:46;11.35;;;10.43;;
25917;SDS011;13899;51.174;4.456;2023-05-09T07:15:12;11.10;;;9.70;;
25917;SDS011;13899;51.174;4.456;2023-05-09T07:17:38;12.00;;;10.73;;
25917;SDS011;13899;51.174;4.456;2023-05-09T07:20:05;11.32;;;10.15;;
25917;SDS011;13899;51.174;4.456;2023-05-09T07:22:31;13.70;;;10.55;;
25917;SDS011;13899;51.174;4.456;2023-05-09T07:24:57;13.27;;;11.70;;
25917;SDS011;13899;51.174;4.456;2023-05-09T07:27:22;11.68;;;9.85;;
25917;SDS011;13899;51.174;4.456;2023-05-09T07:29:48;11.50;;;10.55;;
25917;SDS011;13899;51.174;4.456;2023-05-09T07:32:16;13.60;;;10.82;;
25917;SDS011;13899;51.174;4.456;2023-05-09T07:34:42;11.80;;;10.77;;
25917;SDS011;13899;51.174;4.456;2023-05-09T07:37:08;12.20;;;11.07;;
25917;SDS011;13899;51.174;4.456;2023-05-09T07:39:33;12.10;;;11.00;;
25917;SDS011;13899;51.174;4.456;2023-05-09T07:41:59;11.95;;;10.93;;
25917;SDS011;13899;51.174;4.456;2023-05-09T07:44:25;11.27;;;10.25;;
25917;SDS011;13899;51.174;4.456;2023-05-09T07:46:50;12.18;;;10.73;;
25917;SDS011;13899;51.174;4.456;2023-05-09T07:49:16;11.37;;;10.43;;
25917;SDS011;13899;51.174;4.456;2023-05-09T07:51:41;11.35;;;10.45;;
25917;SDS011;13899;51.174;4.456;2023-05-09T07:54:07;11.23;;;10.23;;
25917;SDS011;13899;51.174;4.456;2023-05-09T07:56:34;9.65;;;8.75;;
25917;SDS011;13899;51.174;4.456;2023-05-09T07:58:59;11.17;;;10.17;;
25917;SDS011;13899;51.174;4.456;2023-05-09T08:01:27;10.45;;;9.43;;
25917;SDS011;13899;51.174;4.456;2023-05-09T08:03:53;10.60;;;9.70;;
25917;SDS011;13899;51.174;4.456;2023-05-09T08:06:18;11.02;;;10.02;;
25917;SDS011;13899;51.174;4.456;2023-05-09T08:08:44;9.87;;;8.87;;
25917;SDS011;13899;51.174;4.456;2023-05-09T08:11:10;10.48;;;9.52;;
25917;SDS011;13899;51.174;4.456;2023-05-09T08:13:35;10.77;;;9.70;;
25917;SDS011;13899;51.174;4.456;2023-05-09T08:16:01;9.68;;;8.77;;
25917;SDS011;13899;51.174;4.456;2023-05-09T08:18:27;10.27;;;9.40;;
25917;SDS011;13899;51.174;4.456;2023-05-09T08:20:53;10.80;;;9.00;;
25917;SDS011;13899;51.174;4.456;2023-05-09T08:23:18;9.43;;;8.57;;
25917;SDS011;13899;51.174;4.456;2023-05-09T08:25:44;12.30;;;9.97;;
25917;SDS011;13899;51.174;4.456;2023-05-09T08:28:10;10.38;;;9.38;;
25917;SDS011;13899;51.174;4.456;2023-05-09T08:30:36;9.67;;;8.77;;
25917;SDS011;13899;51.174;4.456;2023-05-09T08:33:01;10.38;;;9.25;;
25917;SDS011;13899;51.174;4.456;2023-05-09T08:35:27;9.67;;;8.87;;
25917;SDS011;13899;51.174;4.456;2023-05-09T08:37:53;10.50;;;9.50;;
25917;SDS011;13899;51.174;4.456;2023-05-09T08:40:18;9.37;;;8.57;;
25917;SDS011;13899;51.174;4.456;2023-05-09T08:42:44;10.20;;;9.40;;
25917;SDS011;13899;51.174;4.456;2023-05-09T08:45:11;13.25;;;9.45;;
25917;SDS011;13899;51.174;4.456;2023-05-09T08:47:41;10.85;;;9.90;;
25917;SDS011;13899;51.174;4.456;2023-05-09T08:50:07;10.65;;;9.75;;
25917;SDS011;13899;51.174;4.456;2023-05-09T08:52:35;10.65;;;9.65;;
25917;SDS011;13899;51.174;4.456;2023-05-09T08:55:01;10.27;;;9.37;;
25917;SDS011;13899;51.174;4.456;2023-05-09T08:57:33;10.73;;;9.80;;
25917;SDS011;13899;51.174;4.456;2023-05-09T09:00:02;11.77;;;10.77;;
25917;SDS011;13899;51.174;4.456;2023-05-09T09:02:35;11.93;;;10.93;;
25917;SDS011;13899;51.174;4.456;2023-05-09T09:05:04;12.52;;;11.32;;
25917;SDS011;13899;51.174;4.456;2023-05-09T09:07:32;11.93;;;10.82;;
25917;SDS011;13899;51.174;4.456;2023-05-09T09:09:59;12.77;;;11.45;;
25917;SDS011;13899;51.174;4.456;2023-05-09T09:12:26;12.98;;;11.55;;
25917;SDS011;13899;51.174;4.456;2023-05-09T09:14:53;11.03;;;10.03;;
25917;SDS011;13899;51.174;4.456;2023-05-09T09:17:22;11.85;;;10.75;;
25917;SDS011;13899;51.174;4.456;2023-05-09T09:19:52;11.85;;;10.85;;
25917;SDS011;13899;51.174;4.456;2023-05-09T09:22:21;11.38;;;10.27;;
25917;SDS011;13899;51.174;4.456;2023-05-09T09:24:47;13.57;;;9.98;;
25917;SDS011;13899;51.174;4.456;2023-05-09T09:27:14;10.20;;;9.40;;
25917;SDS011;13899;51.174;4.456;2023-05-09T09:29:40;11.53;;;10.07;;
25917;SDS011;13899;51.174;4.456;2023-05-09T09:32:05;10.93;;;9.83;;
25917;SDS011;13899;51.174;4.456;2023-05-09T09:34:31;10.37;;;9.47;;
25917;SDS011;13899;51.174;4.456;2023-05-09T09:36:57;11.47;;;9.83;;
25917;SDS011;13899;51.174;4.456;2023-05-09T09:39:23;10.67;;;9.30;;
25917;SDS011;13899;51.174;4.456;2023-05-09T09:41:49;10.30;;;9.23;;
25917;SDS011;13899;51.174;4.456;2023-05-09T09:44:18;10.17;;;9.27;;
25917;SDS011;13899;51.174;4.456;2023-05-09T09:49:15;9.85;;;8.90;;
25917;SDS011;13899;51.174;4.456;2023-05-09T09:51:41;11.50;;;10.40;;
25917;SDS011;13899;51.174;4.456;2023-05-09T09:54:08;11.02;;;9.95;;
25917;SDS011;13899;51.174;4.456;2023-05-09T09:56:42;10.13;;;9.23;;
25917;SDS011;13899;51.174;4.456;2023-05-09T10:01:48;10.63;;;9.55;;
25917;SDS011;13899;51.174;4.456;2023-05-09T10:04:43;10.40;;;9.40;;
25917;SDS011;13899;51.174;4.456;2023-05-09T10:07:09;10.23;;;9.20;;
25917;SDS011;13899;51.174;4.456;2023-05-09T10:09:35;10.63;;;9.07;;
25917;SDS011;13899;51.174;4.456;2023-05-09T10:15:12;10.77;;;9.15;;
25917;SDS011;13899;51.174;4.456;2023-05-09T10:17:42;10.45;;;9.45;;
25917;SDS011;13899;51.174;4.456;2023-05-09T10:20:08;9.97;;;8.97;;
25917;SDS011;13899;51.174;4.456;2023-05-09T10:22:37;9.77;;;8.98;;
25917;SDS011;13899;51.174;4.456;2023-05-09T10:25:05;13.05;;;9.95;;
25917;SDS011;13899;51.174;4.456;2023-05-09T10:27:37;11.43;;;10.38;;
25917;SDS011;13899;51.174;4.456;2023-05-09T10:30:18;12.15;;;10.90;;
25917;SDS011;13899;51.174;4.456;2023-05-09T10:35:17;10.65;;;9.85;;
25917;SDS011;13899;51.174;4.456;2023-05-09T10:37:44;11.77;;;10.60;;
25917;SDS011;13899;51.174;4.456;2023-05-09T10:40:10;9.90;;;8.90;;
25917;SDS011;13899;51.174;4.456;2023-05-09T10:42:43;9.50;;;8.63;;
25917;SDS011;13899;51.174;4.456;2023-05-09T10:45:12;8.57;;;7.88;;
25917;SDS011;13899;51.174;4.456;2023-05-09T10:47:41;10.52;;;7.72;;
25917;SDS011;13899;51.174;4.456;2023-05-09T10:50:09;8.68;;;7.78;;
25917;SDS011;13899;51.174;4.456;2023-05-09T11:01:03;9.00;;;8.30;;
25917;SDS011;13899;51.174;4.456;2023-05-09T11:09:25;7.95;;;7.15;;
25917;SDS011;13899;51.174;4.456;2023-05-09T11:12:00;7.90;;;7.10;;
25917;SDS011;13899;51.174;4.456;2023-05-09T11:17:28;9.30;;;7.32;;
25917;SDS011;13899;51.174;4.456;2023-05-09T11:20:05;9.00;;;8.13;;
25917;SDS011;13899;51.174;4.456;2023-05-09T11:22:39;8.93;;;8.07;;
25917;SDS011;13899;51.174;4.456;2023-05-09T11:27:47;8.75;;;7.13;;
25917;SDS011;13899;51.174;4.456;2023-05-09T11:30:18;8.32;;;7.40;;
25917;SDS011;13899;51.174;4.456;2023-05-09T11:32:51;9.07;;;8.18;;
25917;SDS011;13899;51.174;4.456;2023-05-09T11:35:23;8.27;;;6.63;;
25917;SDS011;13899;51.174;4.456;2023-05-09T11:38:01;8.23;;;7.40;;
25917;SDS011;13899;51.174;4.456;2023-05-09T11:40:36;7.68;;;7.05;;
25917;SDS011;13899;51.174;4.456;2023-05-09T11:43:05;7.13;;;6.43;;
25917;SDS011;13899;51.174;4.456;2023-05-09T11:45:31;7.90;;;7.18;;
25917;SDS011;13899;51.174;4.456;2023-05-09T11:47:58;11.10;;;6.97;;
25917;SDS011;13899;51.174;4.456;2023-05-09T11:50:24;7.05;;;6.45;;
25917;SDS011;13899;51.174;4.456;2023-05-09T11:52:52;7.72;;;7.03;;
25917;SDS011;13899;51.174;4.456;2023-05-09T11:55:18;7.30;;;6.63;;
25917;SDS011;13899;51.174;4.456;2023-05-09T11:57:49;7.47;;;6.88;;
25917;SDS011;13899;51.174;4.456;2023-05-09T12:00:17;7.40;;;6.80;;
25917;SDS011;13899;51.174;4.456;2023-05-09T12:02:45;8.43;;;7.60;;
25917;SDS011;13899;51.174;4.456;2023-05-09T12:05:15;8.90;;;8.05;;
25917;SDS011;13899;51.174;4.456;2023-05-09T12:07:44;8.52;;;7.82;;
25917;SDS011;13899;51.174;4.456;2023-05-09T12:10:12;6.28;;;5.72;;
25917;SDS011;13899;51.174;4.456;2023-05-09T12:12:43;5.93;;;4.53;;
25917;SDS011;13899;51.174;4.456;2023-05-09T12:15:12;5.40;;;4.90;;
25917;SDS011;13899;51.174;4.456;2023-05-09T12:17:38;5.70;;;5.00;;
25917;SDS011;13899;51.174;4.456;2023-05-09T12:20:05;4.93;;;3.92;;
25917;SDS011;13899;51.174;4.456;2023-05-09T12:22:31;3.97;;;3.65;;
25917;SDS011;13899;51.174;4.456;2023-05-09T12:25:03;4.07;;;2.85;;
25917;SDS011;13899;51.174;4.456;2023-05-09T12:27:31;3.60;;;2.28;;
25917;SDS011;13899;51.174;4.456;2023-05-09T12:29:59;2.50;;;2.00;;
25917;SDS011;13899;51.174;4.456;2023-05-09T12:32:26;2.83;;;2.10;;
25917;SDS011;13899;51.174;4.456;2023-05-09T12:34:57;8.15;;;2.20;;
25917;SDS011;13899;51.174;4.456;2023-05-09T12:37:24;2.90;;;2.67;;
25917;SDS011;13899;51.174;4.456;2023-05-09T12:40:00;4.75;;;2.55;;
25917;SDS011;13899;51.174;4.456;2023-05-09T12:42:35;4.10;;;2.40;;
25917;SDS011;13899;51.174;4.456;2023-05-09T12:45:01;3.65;;;2.72;;
25917;SDS011;13899;51.174;4.456;2023-05-09T12:47:28;3.97;;;3.00;;
25917;SDS011;13899;51.174;4.456;2023-05-09T12:50:02;3.45;;;3.15;;
25917;SDS011;13899;51.174;4.456;2023-05-09T12:52:39;3.60;;;3.30;;
25917;SDS011;13899;51.174;4.456;2023-05-09T12:55:09;4.30;;;3.72;;
25917;SDS011;13899;51.174;4.456;2023-05-09T12:57:36;3.78;;;3.47;;
25917;SDS011;13899;51.174;4.456;2023-05-09T13:00:06;4.13;;;3.20;;
25917;SDS011;13899;51.174;4.456;2023-05-09T13:02:37;4.30;;;3.92;;
25917;SDS011;13899;51.174;4.456;2023-05-09T13:05:12;4.38;;;4.07;;
25917;SDS011;13899;51.174;4.456;2023-05-09T13:07:55;5.53;;;4.63;;
25917;SDS011;13899;51.174;4.456;2023-05-09T13:10:24;5.60;;;5.10;;
25917;SDS011;13899;51.174;4.456;2023-05-09T13:12:55;6.07;;;4.90;;
25917;SDS011;13899;51.174;4.456;2023-05-09T13:15:21;6.57;;;4.83;;
25917;SDS011;13899;51.174;4.456;2023-05-09T13:17:51;10.07;;;5.20;;
25917;SDS011;13899;51.174;4.456;2023-05-09T13:20:17;5.30;;;4.60;;
25917;SDS011;13899;51.174;4.456;2023-05-09T13:22:43;4.93;;;4.57;;
25917;SDS011;13899;51.174;4.456;2023-05-09T13:25:10;4.82;;;4.43;;
25917;SDS011;13899;51.174;4.456;2023-05-09T13:27:40;6.25;;;5.20;;
25917;SDS011;13899;51.174;4.456;2023-05-09T13:30:06;7.90;;;4.27;;
25917;SDS011;13899;51.174;4.456;2023-05-09T13:32:32;6.03;;;4.43;;
25917;SDS011;13899;51.174;4.456;2023-05-09T13:34:58;4.97;;;4.50;;
25917;SDS011;13899;51.174;4.456;2023-05-09T13:37:25;7.22;;;5.00;;
25917;SDS011;13899;51.174;4.456;2023-05-09T13:42:18;5.88;;;5.38;;
25917;SDS011;13899;51.174;4.456;2023-05-09T13:44:44;6.23;;;4.97;;
25917;SDS011;13899;51.174;4.456;2023-05-09T13:47:10;6.20;;;5.20;;
25917;SDS011;13899;51.174;4.456;2023-05-09T13:49:36;6.90;;;6.13;;
25917;SDS011;13899;51.174;4.456;2023-05-09T13:52:02;6.60;;;5.95;;
25917;SDS011;13899;51.174;4.456;2023-05-09T13:54:29;7.88;;;7.00;;
25917;SDS011;13899;51.174;4.456;2023-05-09T13:56:59;7.20;;;6.50;;
25917;SDS011;13899;51.174;4.456;2023-05-09T13:59:26;7.20;;;6.50;;
25917;SDS011;13899;51.174;4.456;2023-05-09T14:01:52;8.20;;;6.60;;
25917;SDS011;13899;51.174;4.456;2023-05-09T14:04:17;6.50;;;5.90;;
25917;SDS011;13899;51.174;4.456;2023-05-09T14:06:43;6.30;;;5.55;;
25917;SDS011;13899;51.174;4.456;2023-05-09T14:09:12;8.35;;;6.10;;
25917;SDS011;13899;51.174;4.456;2023-05-09T14:11:39;5.43;;;4.93;;
25917;SDS011;13899;51.174;4.456;2023-05-09T14:14:06;6.00;;;5.40;;
25917;SDS011;13899;51.174;4.456;2023-05-09T14:16:32;5.73;;;5.23;;
25917;SDS011;13899;51.174;4.456;2023-05-09T14:18:58;6.87;;;4.90;;
25917;SDS011;13899;51.174;4.456;2023-05-09T14:21:23;3.83;;;3.50;;
25917;SDS011;13899;51.174;4.456;2023-05-09T14:23:49;4.80;;;4.40;;
25917;SDS011;13899;51.174;4.456;2023-05-09T14:26:15;4.20;;;3.90;;
25917;SDS011;13899;51.174;4.456;2023-05-09T14:28:42;4.43;;;4.03;;
25917;SDS011;13899;51.174;4.456;2023-05-09T14:31:13;4.47;;;4.07;;
25917;SDS011;13899;51.174;4.456;2023-05-09T14:33:39;5.03;;;4.63;;
25917;SDS011;13899;51.174;4.456;2023-05-09T14:36:05;4.83;;;3.93;;
25917;SDS011;13899;51.174;4.456;2023-05-09T14:38:31;4.60;;;4.20;;
25917;SDS011;13899;51.174;4.456;2023-05-09T14:40:57;4.88;;;4.40;;
25917;SDS011;13899;51.174;4.456;2023-05-09T14:43:23;4.43;;;3.77;;
25917;SDS011;13899;51.174;4.456;2023-05-09T14:45:49;4.05;;;2.58;;
25917;SDS011;13899;51.174;4.456;2023-05-09T14:48:15;6.57;;;3.50;;
25917;SDS011;13899;51.174;4.456;2023-05-09T14:50:41;3.75;;;2.78;;
25917;SDS011;13899;51.174;4.456;2023-05-09T14:53:07;3.72;;;2.75;;
25917;SDS011;13899;51.174;4.456;2023-05-09T14:55:33;3.28;;;2.50;;
25917;SDS011;13899;51.174;4.456;2023-05-09T14:57:58;3.63;;;2.70;;
25917;SDS011;13899;51.174;4.456;2023-05-09T15:00:24;2.72;;;2.53;;
25917;SDS011;13899;51.174;4.456;2023-05-09T15:02:50;3.38;;;2.33;;
25917;SDS011;13899;51.174;4.456;2023-05-09T15:05:16;2.70;;;2.20;;
25917;SDS011;13899;51.174;4.456;2023-05-09T15:07:42;1.92;;;1.77;;
25917;SDS011;13899;51.174;4.456;2023-05-09T15:10:08;2.65;;;1.70;;
25917;SDS011;13899;51.174;4.456;2023-05-09T15:12:34;3.55;;;1.55;;
25917;SDS011;13899;51.174;4.456;2023-05-09T15:15:19;1.60;;;1.50;;
25917;SDS011;13899;51.174;4.456;2023-05-09T15:17:45;4.30;;;1.20;;
25917;SDS011;13899;51.174;4.456;2023-05-09T15:20:11;1.23;;;1.13;;
25917;SDS011;13899;51.174;4.456;2023-05-09T15:22:42;1.65;;;1.17;;
25917;SDS011;13899;51.174;4.456;2023-05-09T15:25:09;1.75;;;1.27;;
25917;SDS011;13899;51.174;4.456;2023-05-09T15:27:34;1.35;;;1.25;;
25917;SDS011;13899;51.174;4.456;2023-05-09T15:30:01;1.23;;;1.13;;
25917;SDS011;13899;51.174;4.456;2023-05-09T15:32:27;1.10;;;1.00;;